sensor_id;sensor_type;location;lat;lon;timestamp;pressure;altitude;pressure_sealevel;temperature;humidity
3178;BME280;38141;42.666;23.344;2023-04-26T00:01:34;93737.53;;;10.66;100.00
3178;BME280;38141;42.666;23.344;2023-04-26T00:04:01;93675.56;;;10.15;100.00
3178;BME280;38141;42.666;23.344;2023-04-26T00:06:28;93739.09;;;10.64;100.00
3178;BME280;38141;42.666;23.344;2023-04-26T00:08:55;93743.66;;;10.70;100.00
3178;BME280;38141;42.666;23.344;2023-04-26T00:11:23;93707.03;;;10.32;100.00
3178;BME280;38141;42.666;23.344;2023-04-26T00:13:50;93735.94;;;10.39;100.00
3178;BME280;38141;42.666;23.344;2023-04-26T00:16:17;93720.00;;;10.48;100.00
3178;BME280;38141;42.666;23.344;2023-04-26T00:18:46;93693.03;;;10.41;100.00
3178;BME280;38141;42.666;23.344;2023-04-26T00:21:13;93720.50;;;10.39;100.00
3178;BME280;38141;42.666;23.344;2023-04-26T00:23:40;93729.53;;;10.25;100.00
3178;BME280;38141;42.666;23.344;2023-04-26T00:26:07;93728.38;;;10.23;100.00
3178;BME280;38141;42.666;23.344;2023-04-26T00:28:35;93724.88;;;10.26;100.00
3178;BME280;38141;42.666;23.344;2023-04-26T00:31:02;93730.97;;;10.34;100.00
3178;BME280;38141;42.666;23.344;2023-04-26T00:33:29;93691.31;;;10.23;100.00
3178;BME280;38141;42.666;23.344;2023-04-26T00:35:55;93697.88;;;10.22;100.00
3178;BME280;38141;42.666;23.344;2023-04-26T00:38:22;93679.25;;;9.98;100.00
3178;BME280;38141;42.666;23.344;2023-04-26T00:40:49;93709.59;;;10.09;100.00
3178;BME280;38141;42.666;23.344;2023-04-26T00:43:16;93710.06;;;10.00;100.00
3178;BME280;38141;42.666;23.344;2023-04-26T00:45:44;93684.88;;;9.76;100.00
3178;BME280;38141;42.666;23.344;2023-04-26T00:48:11;93717.94;;;9.88;100.00
3178;BME280;38141;42.666;23.344;2023-04-26T00:50:38;93708.00;;;9.77;100.00
3178;BME280;38141;42.666;23.344;2023-04-26T00:53:06;93714.44;;;9.87;100.00
3178;BME280;38141;42.666;23.344;2023-04-26T00:55:34;93711.63;;;10.01;100.00
3178;BME280;38141;42.666;23.344;2023-04-26T00:58:01;93713.16;;;10.02;100.00
3178;BME280;38141;42.666;23.344;2023-04-26T01:00:28;93711.19;;;9.65;100.00
3178;BME280;38141;42.666;23.344;2023-04-26T01:02:56;93714.19;;;9.74;100.00
3178;BME280;38141;42.666;23.344;2023-04-26T01:05:23;93705.47;;;9.60;100.00
3178;BME280;38141;42.666;23.344;2023-04-26T01:07:50;93726.59;;;9.72;100.00
3178;BME280;38141;42.666;23.344;2023-04-26T01:10:17;93720.03;;;9.69;100.00
3178;BME280;38141;42.666;23.344;2023-04-26T01:12:44;93694.91;;;9.31;100.00
3178;BME280;38141;42.666;23.344;2023-04-26T01:15:12;93723.69;;;9.49;100.00
3178;BME280;38141;42.666;23.344;2023-04-26T01:17:39;93725.25;;;9.46;100.00
3178;BME280;38141;42.666;23.344;2023-04-26T01:20:08;93708.31;;;9.42;100.00
3178;BME280;38141;42.666;23.344;2023-04-26T01:22:37;93720.84;;;9.66;100.00
3178;BME280;38141;42.666;23.344;2023-04-26T01:25:05;93657.59;;;9.23;100.00
3178;BME280;38141;42.666;23.344;2023-04-26T01:27:33;93718.34;;;9.42;100.00
3178;BME280;38141;42.666;23.344;2023-04-26T01:30:00;93702.41;;;9.58;100.00
3178;BME280;38141;42.666;23.344;2023-04-26T01:32:27;93642.03;;;8.93;100.00
3178;BME280;38141;42.666;23.344;2023-04-26T01:34:54;93620.97;;;8.74;100.00
3178;BME280;38141;42.666;23.344;2023-04-26T01:37:21;93679.81;;;8.89;100.00
3178;BME280;38141;42.666;23.344;2023-04-26T01:39:50;93712.00;;;9.14;100.00
3178;BME280;38141;42.666;23.344;2023-04-26T01:42:17;93716.31;;;9.08;100.00
3178;BME280;38141;42.666;23.344;2023-04-26T01:44:44;93718.09;;;9.25;100.00
3178;BME280;38141;42.666;23.344;2023-04-26T01:47:11;93721.56;;;9.26;100.00
3178;BME280;38141;42.666;23.344;2023-04-26T01:49:37;93725.06;;;9.19;100.00
3178;BME280;38141;42.666;23.344;2023-04-26T01:52:05;93720.34;;;8.79;100.00
3178;BME280;38141;42.666;23.344;2023-04-26T01:54:32;93726.09;;;8.84;100.00
3178;BME280;38141;42.666;23.344;2023-04-26T01:57:00;93720.38;;;8.72;100.00
3178;BME280;38141;42.666;23.344;2023-04-26T01:59:28;93716.84;;;8.82;100.00
3178;BME280;38141;42.666;23.344;2023-04-26T02:01:54;93708.69;;;8.92;100.00
3178;BME280;38141;42.666;23.344;2023-04-26T02:04:21;93710.97;;;8.98;100.00
3178;BME280;38141;42.666;23.344;2023-04-26T02:06:49;93607.41;;;8.29;100.00
3178;BME280;38141;42.666;23.344;2023-04-26T02:09:16;93724.50;;;8.87;100.00
3178;BME280;38141;42.666;23.344;2023-04-26T02:11:43;93677.56;;;8.77;100.00
3178;BME280;38141;42.666;23.344;2023-04-26T02:14:12;93664.59;;;8.62;100.00
3178;BME280;38141;42.666;23.344;2023-04-26T02:16:40;93705.59;;;8.94;100.00
3178;BME280;38141;42.666;23.344;2023-04-26T02:19:06;93691.38;;;8.90;100.00
3178;BME280;38141;42.666;23.344;2023-04-26T02:21:49;93667.97;;;8.73;100.00
3178;BME280;38141;42.666;23.344;2023-04-26T02:24:17;93676.47;;;8.71;100.00
3178;BME280;38141;42.666;23.344;2023-04-26T02:26:43;93700.22;;;8.90;100.00
3178;BME280;38141;42.666;23.344;2023-04-26T02:29:11;93703.25;;;8.96;100.00
3178;BME280;38141;42.666;23.344;2023-04-26T02:31:38;93671.84;;;8.72;100.00
3178;BME280;38141;42.666;23.344;2023-04-26T02:34:05;93699.34;;;9.04;100.00
3178;BME280;38141;42.666;23.344;2023-04-26T02:36:32;93693.63;;;8.99;100.00
3178;BME280;38141;42.666;23.344;2023-04-26T02:38:58;93703.91;;;9.14;100.00
3178;BME280;38141;42.666;23.344;2023-04-26T02:41:25;93672.72;;;9.10;100.00
3178;BME280;38141;42.666;23.344;2023-04-26T02:43:52;93678.09;;;9.13;100.00
3178;BME280;38141;42.666;23.344;2023-04-26T02:46:20;93651.28;;;8.92;100.00
3178;BME280;38141;42.666;23.344;2023-04-26T02:48:47;93706.00;;;9.44;100.00
3178;BME280;38141;42.666;23.344;2023-04-26T02:51:14;93681.25;;;9.08;100.00
3178;BME280;38141;42.666;23.344;2023-04-26T02:53:41;93691.69;;;9.03;100.00
3178;BME280;38141;42.666;23.344;2023-04-26T02:56:08;93639.06;;;8.77;100.00
3178;BME280;38141;42.666;23.344;2023-04-26T02:58:35;93667.44;;;8.99;100.00
3178;BME280;38141;42.666;23.344;2023-04-26T03:01:02;93685.09;;;9.07;100.00
3178;BME280;38141;42.666;23.344;2023-04-26T03:03:31;93684.56;;;9.23;100.00
3178;BME280;38141;42.666;23.344;2023-04-26T03:05:58;93699.59;;;9.24;100.00
3178;BME280;38141;42.666;23.344;2023-04-26T03:08:24;93612.94;;;8.70;100.00
3178;BME280;38141;42.666;23.344;2023-04-26T03:10:51;93688.63;;;9.45;100.00
3178;BME280;38141;42.666;23.344;2023-04-26T03:13:18;93692.97;;;9.32;100.00
3178;BME280;38141;42.666;23.344;2023-04-26T03:15:45;93688.31;;;9.36;100.00
3178;BME280;38141;42.666;23.344;2023-04-26T03:18:12;93699.41;;;9.45;100.00
3178;BME280;38141;42.666;23.344;2023-04-26T03:20:40;93643.44;;;9.12;100.00
3178;BME280;38141;42.666;23.344;2023-04-26T03:23:08;93663.09;;;9.09;100.00
3178;BME280;38141;42.666;23.344;2023-04-26T03:25:35;93699.88;;;9.36;100.00
3178;BME280;38141;42.666;23.344;2023-04-26T03:28:02;93634.19;;;9.09;100.00
3178;BME280;38141;42.666;23.344;2023-04-26T03:30:28;93636.88;;;9.13;100.00
3178;BME280;38141;42.666;23.344;2023-04-26T03:32:55;93655.50;;;9.41;100.00
3178;BME280;38141;42.666;23.344;2023-04-26T03:35:22;93619.88;;;9.16;100.00
3178;BME280;38141;42.666;23.344;2023-04-26T03:37:50;93695.59;;;9.43;100.00
3178;BME280;38141;42.666;23.344;2023-04-26T03:40:17;93658.16;;;9.48;100.00
3178;BME280;38141;42.666;23.344;2023-04-26T03:42:44;93655.25;;;9.66;100.00
3178;BME280;38141;42.666;23.344;2023-04-26T03:45:10;93692.81;;;9.91;100.00
3178;BME280;38141;42.666;23.344;2023-04-26T03:47:37;93683.47;;;9.99;100.00
3178;BME280;38141;42.666;23.344;2023-04-26T03:50:06;93685.31;;;10.05;100.00
3178;BME280;38141;42.666;23.344;2023-04-26T03:52:33;93697.22;;;10.11;100.00
3178;BME280;38141;42.666;23.344;2023-04-26T03:55:01;93625.84;;;9.75;100.00
3178;BME280;38141;42.666;23.344;2023-04-26T03:57:28;93674.16;;;10.03;100.00
3178;BME280;38141;42.666;23.344;2023-04-26T03:59:55;93693.81;;;10.41;100.00
3178;BME280;38141;42.666;23.344;2023-04-26T04:02:25;93693.19;;;10.60;100.00
3178;BME280;38141;42.666;23.344;2023-04-26T04:04:51;93693.63;;;10.55;100.00
3178;BME280;38141;42.666;23.344;2023-04-26T04:07:18;93693.56;;;10.59;100.00
3178;BME280;38141;42.666;23.344;2023-04-26T04:09:46;93693.88;;;10.64;100.00
3178;BME280;38141;42.666;23.344;2023-04-26T04:12:14;93670.19;;;10.76;100.00
3178;BME280;38141;42.666;23.344;2023-04-26T04:14:41;93630.78;;;10.75;100.00
3178;BME280;38141;42.666;23.344;2023-04-26T04:17:07;93704.47;;;11.09;100.00
3178;BME280;38141;42.666;23.344;2023-04-26T04:19:35;93643.56;;;10.44;100.00
3178;BME280;38141;42.666;23.344;2023-04-26T04:22:02;93714.00;;;10.90;100.00
3178;BME280;38141;42.666;23.344;2023-04-26T04:24:29;93692.13;;;11.08;100.00
3178;BME280;38141;42.666;23.344;2023-04-26T04:26:56;93596.19;;;10.62;100.00
3178;BME280;38141;42.666;23.344;2023-04-26T04:29:26;93680.81;;;11.13;100.00
3178;BME280;38141;42.666;23.344;2023-04-26T04:31:53;93660.50;;;11.01;100.00
3178;BME280;38141;42.666;23.344;2023-04-26T04:34:21;93747.09;;;11.55;100.00
3178;BME280;38141;42.666;23.344;2023-04-26T04:36:49;93564.66;;;10.52;100.00
3178;BME280;38141;42.666;23.344;2023-04-26T04:39:16;93669.78;;;11.27;100.00
3178;BME280;38141;42.666;23.344;2023-04-26T04:41:42;93648.22;;;11.67;100.00
3178;BME280;38141;42.666;23.344;2023-04-26T04:44:12;93669.25;;;11.82;100.00
3178;BME280;38141;42.666;23.344;2023-04-26T04:46:42;93716.91;;;12.62;100.00
3178;BME280;38141;42.666;23.344;2023-04-26T04:49:10;93707.03;;;12.52;100.00
3178;BME280;38141;42.666;23.344;2023-04-26T04:51:38;93727.13;;;12.55;100.00
3178;BME280;38141;42.666;23.344;2023-04-26T04:54:09;93736.84;;;12.91;100.00
3178;BME280;38141;42.666;23.344;2023-04-26T04:56:36;93732.84;;;12.60;100.00
3178;BME280;38141;42.666;23.344;2023-04-26T04:59:03;93628.03;;;11.91;100.00
3178;BME280;38141;42.666;23.344;2023-04-26T05:01:30;93642.88;;;12.26;100.00
3178;BME280;38141;42.666;23.344;2023-04-26T05:03:59;93709.31;;;12.73;100.00
3178;BME280;38141;42.666;23.344;2023-04-26T05:06:26;93671.69;;;12.36;100.00
3178;BME280;38141;42.666;23.344;2023-04-26T05:08:53;93724.63;;;13.35;100.00
3178;BME280;38141;42.666;23.344;2023-04-26T05:11:20;93725.66;;;13.74;100.00
3178;BME280;38141;42.666;23.344;2023-04-26T05:13:47;93731.59;;;13.36;100.00
3178;BME280;38141;42.666;23.344;2023-04-26T05:16:15;93670.72;;;12.82;100.00
3178;BME280;38141;42.666;23.344;2023-04-26T05:18:41;93726.66;;;13.96;100.00
3178;BME280;38141;42.666;23.344;2023-04-26T05:21:10;93738.09;;;14.20;100.00
3178;BME280;38141;42.666;23.344;2023-04-26T05:23:36;93698.13;;;13.88;100.00
3178;BME280;38141;42.666;23.344;2023-04-26T05:26:04;93735.53;;;14.29;100.00
3178;BME280;38141;42.666;23.344;2023-04-26T05:28:31;93721.06;;;14.03;100.00
3178;BME280;38141;42.666;23.344;2023-04-26T05:30:58;93700.59;;;13.82;100.00
3178;BME280;38141;42.666;23.344;2023-04-26T05:33:26;93742.06;;;14.48;100.00
3178;BME280;38141;42.666;23.344;2023-04-26T05:35:53;93696.03;;;14.08;100.00
3178;BME280;38141;42.666;23.344;2023-04-26T05:38:23;93747.88;;;14.62;100.00
3178;BME280;38141;42.666;23.344;2023-04-26T05:40:50;93744.41;;;15.16;100.00
3178;BME280;38141;42.666;23.344;2023-04-26T05:43:17;93710.28;;;15.37;100.00
3178;BME280;38141;42.666;23.344;2023-04-26T05:45:49;93748.81;;;16.45;98.31
3178;BME280;38141;42.666;23.344;2023-04-26T05:48:17;93759.00;;;16.58;89.17
3178;BME280;38141;42.666;23.344;2023-04-26T05:50:44;93754.53;;;16.95;83.03
3178;BME280;38141;42.666;23.344;2023-04-26T05:53:11;93718.63;;;17.05;79.32
3178;BME280;38141;42.666;23.344;2023-04-26T05:55:39;93751.56;;;17.32;77.09
3178;BME280;38141;42.666;23.344;2023-04-26T05:58:07;93685.09;;;16.83;75.45
3178;BME280;38141;42.666;23.344;2023-04-26T06:00:34;93748.22;;;16.63;77.64
3178;BME280;38141;42.666;23.344;2023-04-26T06:03:01;93714.53;;;16.23;79.44
3178;BME280;38141;42.666;23.344;2023-04-26T06:05:28;93693.81;;;15.78;82.08
3178;BME280;38141;42.666;23.344;2023-04-26T06:07:55;93757.91;;;16.42;79.98
3178;BME280;38141;42.666;23.344;2023-04-26T06:10:22;93749.91;;;17.35;74.35
3178;BME280;38141;42.666;23.344;2023-04-26T06:12:50;93744.38;;;17.88;68.73
3178;BME280;38141;42.666;23.344;2023-04-26T06:15:17;93751.50;;;18.61;63.87
3178;BME280;38141;42.666;23.344;2023-04-26T06:17:43;93756.81;;;19.01;60.98
3178;BME280;38141;42.666;23.344;2023-04-26T06:20:11;93735.03;;;18.98;59.71
3178;BME280;38141;42.666;23.344;2023-04-26T06:22:38;93738.84;;;18.64;59.59
3178;BME280;38141;42.666;23.344;2023-04-26T06:25:06;93753.25;;;19.79;57.15
3178;BME280;38141;42.666;23.344;2023-04-26T06:27:33;93734.13;;;20.65;54.66
3178;BME280;38141;42.666;23.344;2023-04-26T06:30:01;93664.38;;;20.77;52.17
3178;BME280;38141;42.666;23.344;2023-04-26T06:32:28;93739.00;;;20.47;51.77
3178;BME280;38141;42.666;23.344;2023-04-26T06:34:55;93738.34;;;20.90;51.52
3178;BME280;38141;42.666;23.344;2023-04-26T06:37:21;93736.59;;;19.41;56.75
3178;BME280;38141;42.666;23.344;2023-04-26T06:39:48;93762.56;;;18.40;58.01
3178;BME280;38141;42.666;23.344;2023-04-26T06:42:15;93692.72;;;18.35;57.18
3178;BME280;38141;42.666;23.344;2023-04-26T06:44:42;93684.97;;;16.43;62.74
3178;BME280;38141;42.666;23.344;2023-04-26T06:47:10;93743.50;;;16.98;59.95
3178;BME280;38141;42.666;23.344;2023-04-26T06:49:37;93759.78;;;16.67;58.53
3178;BME280;38141;42.666;23.344;2023-04-26T06:52:04;93752.91;;;15.94;60.99
3178;BME280;38141;42.666;23.344;2023-04-26T06:54:32;93673.47;;;15.07;65.75
3178;BME280;38141;42.666;23.344;2023-04-26T06:56:59;93731.66;;;16.23;63.76
3178;BME280;38141;42.666;23.344;2023-04-26T06:59:25;93755.25;;;16.17;62.88
3178;BME280;38141;42.666;23.344;2023-04-26T07:01:53;93743.78;;;16.57;58.81
3178;BME280;38141;42.666;23.344;2023-04-26T07:04:21;93740.34;;;17.09;56.79
3178;BME280;38141;42.666;23.344;2023-04-26T07:06:48;93748.56;;;16.65;58.19
3178;BME280;38141;42.666;23.344;2023-04-26T07:09:15;93767.50;;;17.03;58.20
3178;BME280;38141;42.666;23.344;2023-04-26T07:11:44;93765.03;;;16.74;58.71
3178;BME280;38141;42.666;23.344;2023-04-26T07:14:11;93746.75;;;16.15;61.27
3178;BME280;38141;42.666;23.344;2023-04-26T07:16:38;93734.22;;;16.74;59.97
3178;BME280;38141;42.666;23.344;2023-04-26T07:19:05;93753.22;;;16.43;59.44
3178;BME280;38141;42.666;23.344;2023-04-26T07:21:33;93765.56;;;15.63;62.69
3178;BME280;38141;42.666;23.344;2023-04-26T07:24:00;93770.19;;;15.53;65.43
3178;BME280;38141;42.666;23.344;2023-04-26T07:26:27;93753.81;;;16.60;60.20
3178;BME280;38141;42.666;23.344;2023-04-26T07:28:54;93769.13;;;17.22;56.05
3178;BME280;38141;42.666;23.344;2023-04-26T07:31:21;93751.78;;;17.16;57.21
3178;BME280;38141;42.666;23.344;2023-04-26T07:33:47;93755.38;;;17.35;57.11
3178;BME280;38141;42.666;23.344;2023-04-26T07:36:14;93766.25;;;18.73;53.62
3178;BME280;38141;42.666;23.344;2023-04-26T07:38:43;93775.41;;;17.94;53.99
3178;BME280;38141;42.666;23.344;2023-04-26T07:41:10;93773.69;;;17.87;51.90
3178;BME280;38141;42.666;23.344;2023-04-26T07:43:37;93778.00;;;17.35;51.98
3178;BME280;38141;42.666;23.344;2023-04-26T07:46:04;93777.84;;;16.65;54.44
3178;BME280;38141;42.666;23.344;2023-04-26T07:48:31;93719.69;;;16.08;56.53
3178;BME280;38141;42.666;23.344;2023-04-26T07:51:06;93786.88;;;16.74;56.22
3178;BME280;38141;42.666;23.344;2023-04-26T07:53:33;93785.06;;;16.12;59.65
3178;BME280;38141;42.666;23.344;2023-04-26T07:56:03;93785.84;;;16.59;56.18
3178;BME280;38141;42.666;23.344;2023-04-26T07:58:30;93779.50;;;16.84;53.09
3178;BME280;38141;42.666;23.344;2023-04-26T08:00:58;93781.06;;;15.91;55.09
3178;BME280;38141;42.666;23.344;2023-04-26T08:03:25;93774.56;;;16.23;53.57
3178;BME280;38141;42.666;23.344;2023-04-26T08:05:52;93779.28;;;16.10;53.91
3178;BME280;38141;42.666;23.344;2023-04-26T08:08:20;93768.88;;;15.70;55.57
3178;BME280;38141;42.666;23.344;2023-04-26T08:10:47;93794.16;;;16.43;54.31
3178;BME280;38141;42.666;23.344;2023-04-26T08:13:15;93729.06;;;15.60;55.67
3178;BME280;38141;42.666;23.344;2023-04-26T08:15:42;93780.56;;;16.18;56.64
3178;BME280;38141;42.666;23.344;2023-04-26T08:18:09;93786.50;;;16.51;54.79
3178;BME280;38141;42.666;23.344;2023-04-26T08:20:36;93704.09;;;16.43;53.83
3178;BME280;38141;42.666;23.344;2023-04-26T08:23:03;93774.09;;;17.15;53.11
3178;BME280;38141;42.666;23.344;2023-04-26T08:25:31;93788.59;;;17.86;51.63
3178;BME280;38141;42.666;23.344;2023-04-26T08:27:59;93783.19;;;17.12;52.57
3178;BME280;38141;42.666;23.344;2023-04-26T08:30:27;93791.66;;;17.88;51.96
3178;BME280;38141;42.666;23.344;2023-04-26T08:32:54;93766.59;;;17.99;50.16
3178;BME280;38141;42.666;23.344;2023-04-26T08:35:21;93778.94;;;18.03;50.86
3178;BME280;38141;42.666;23.344;2023-04-26T08:37:47;93783.09;;;17.77;51.93
3178;BME280;38141;42.666;23.344;2023-04-26T08:40:21;93785.75;;;17.37;52.59
3178;BME280;38141;42.666;23.344;2023-04-26T08:42:48;93781.31;;;17.92;51.84
3178;BME280;38141;42.666;23.344;2023-04-26T08:45:17;93784.75;;;18.23;49.21
3178;BME280;38141;42.666;23.344;2023-04-26T08:47:47;93795.16;;;17.89;49.44
3178;BME280;38141;42.666;23.344;2023-04-26T08:50:14;93799.06;;;17.04;51.60
3178;BME280;38141;42.666;23.344;2023-04-26T08:52:42;93797.56;;;17.25;51.65
3178;BME280;38141;42.666;23.344;2023-04-26T08:55:10;93795.22;;;17.45;51.67
3178;BME280;38141;42.666;23.344;2023-04-26T08:57:37;93780.53;;;17.21;52.17
3178;BME280;38141;42.666;23.344;2023-04-26T09:00:06;93797.44;;;17.07;52.42
3178;BME280;38141;42.666;23.344;2023-04-26T09:02:37;93803.19;;;16.65;52.43
3178;BME280;38141;42.666;23.344;2023-04-26T09:05:08;93799.59;;;17.12;50.97
3178;BME280;38141;42.666;23.344;2023-04-26T09:07:39;93790.06;;;17.16;50.40
3178;BME280;38141;42.666;23.344;2023-04-26T09:10:07;93795.97;;;16.93;51.32
3178;BME280;38141;42.666;23.344;2023-04-26T09:12:34;93802.72;;;17.54;50.18
3178;BME280;38141;42.666;23.344;2023-04-26T09:15:01;93798.41;;;18.14;48.67
3178;BME280;38141;42.666;23.344;2023-04-26T09:17:30;93776.91;;;17.02;49.83
3178;BME280;38141;42.666;23.344;2023-04-26T09:19:57;93799.56;;;17.33;49.28
3178;BME280;38141;42.666;23.344;2023-04-26T09:22:30;93798.44;;;17.74;49.27
3178;BME280;38141;42.666;23.344;2023-04-26T09:24:57;93801.25;;;17.40;51.21
3178;BME280;38141;42.666;23.344;2023-04-26T09:27:32;93798.25;;;18.09;49.60
3178;BME280;38141;42.666;23.344;2023-04-26T09:30:03;93805.75;;;17.77;49.62
3178;BME280;38141;42.666;23.344;2023-04-26T09:32:47;93793.38;;;18.62;47.92
3178;BME280;38141;42.666;23.344;2023-04-26T09:35:21;93799.44;;;19.21;46.17
3178;BME280;38141;42.666;23.344;2023-04-26T09:37:54;93798.22;;;19.13;45.94
3178;BME280;38141;42.666;23.344;2023-04-26T09:40:24;93800.34;;;18.54;46.51
3178;BME280;38141;42.666;23.344;2023-04-26T09:42:59;93776.59;;;18.60;45.50
3178;BME280;38141;42.666;23.344;2023-04-26T09:45:27;93796.06;;;18.44;46.85
3178;BME280;38141;42.666;23.344;2023-04-26T09:47:55;93798.63;;;17.80;49.04
3178;BME280;38141;42.666;23.344;2023-04-26T09:50:37;93794.69;;;17.28;49.11
3178;BME280;38141;42.666;23.344;2023-04-26T09:53:05;93789.66;;;17.80;48.52
3178;BME280;38141;42.666;23.344;2023-04-26T09:55:33;93792.03;;;17.47;50.03
3178;BME280;38141;42.666;23.344;2023-04-26T09:58:07;93789.97;;;17.29;50.10
3178;BME280;38141;42.666;23.344;2023-04-26T10:00:36;93771.88;;;17.53;49.22
3178;BME280;38141;42.666;23.344;2023-04-26T10:03:05;93785.31;;;18.09;48.40
3178;BME280;38141;42.666;23.344;2023-04-26T10:05:33;93777.31;;;18.42;47.19
3178;BME280;38141;42.666;23.344;2023-04-26T10:08:00;93785.75;;;17.99;47.67
3178;BME280;38141;42.666;23.344;2023-04-26T10:10:29;93761.16;;;17.68;47.93
3178;BME280;38141;42.666;23.344;2023-04-26T10:12:57;93776.81;;;18.07;48.92
3178;BME280;38141;42.666;23.344;2023-04-26T10:15:24;93783.97;;;18.23;46.97
3178;BME280;38141;42.666;23.344;2023-04-26T10:17:51;93778.50;;;18.23;47.02
3178;BME280;38141;42.666;23.344;2023-04-26T10:23:58;93763.75;;;17.62;46.53
3178;BME280;38141;42.666;23.344;2023-04-26T10:26:48;93771.44;;;17.95;46.16
3178;BME280;38141;42.666;23.344;2023-04-26T10:29:16;93752.47;;;18.09;45.62
3178;BME280;38141;42.666;23.344;2023-04-26T10:32:05;93774.91;;;17.55;46.56
3178;BME280;38141;42.666;23.344;2023-04-26T10:34:34;93771.75;;;17.97;45.29
3178;BME280;38141;42.666;23.344;2023-04-26T10:37:09;93771.44;;;17.95;45.19
3178;BME280;38141;42.666;23.344;2023-04-26T10:39:36;93771.41;;;17.55;46.89
3178;BME280;38141;42.666;23.344;2023-04-26T10:42:24;93760.56;;;18.22;44.66
3178;BME280;38141;42.666;23.344;2023-04-26T10:44:52;93729.06;;;17.59;44.87
3178;BME280;38141;42.666;23.344;2023-04-26T10:47:30;93657.97;;;16.88;44.47
3178;BME280;38141;42.666;23.344;2023-04-26T10:50:05;93762.16;;;17.00;45.84
3178;BME280;38141;42.666;23.344;2023-04-26T10:52:33;93756.03;;;17.17;47.11
3178;BME280;38141;42.666;23.344;2023-04-26T10:55:03;93730.00;;;16.82;46.51
3178;BME280;38141;42.666;23.344;2023-04-26T10:57:51;93743.53;;;17.07;45.52
3178;BME280;38141;42.666;23.344;2023-04-26T11:00:29;93722.50;;;16.95;44.78
3178;BME280;38141;42.666;23.344;2023-04-26T11:03:09;93749.34;;;17.49;44.58
3178;BME280;38141;42.666;23.344;2023-04-26T11:06:01;93666.31;;;16.63;44.61
3178;BME280;38141;42.666;23.344;2023-04-26T11:08:39;93660.50;;;16.83;44.23
3178;BME280;38141;42.666;23.344;2023-04-26T11:11:11;93656.63;;;16.06;44.95
3178;BME280;38141;42.666;23.344;2023-04-26T11:13:41;93684.44;;;16.35;46.72
3178;BME280;38141;42.666;23.344;2023-04-26T11:16:11;93642.00;;;16.34;44.72
3178;BME280;38141;42.666;23.344;2023-04-26T11:18:39;93730.53;;;16.68;45.55
3178;BME280;38141;42.666;23.344;2023-04-26T11:21:14;93771.94;;;17.62;45.01
3178;BME280;38141;42.666;23.344;2023-04-26T11:23:52;93658.31;;;16.25;44.78
3178;BME280;38141;42.666;23.344;2023-04-26T11:26:22;93691.00;;;16.81;44.87
3178;BME280;38141;42.666;23.344;2023-04-26T11:28:53;93677.84;;;16.24;45.47
3178;BME280;38141;42.666;23.344;2023-04-26T11:31:22;93762.34;;;17.05;45.02
3178;BME280;38141;42.666;23.344;2023-04-26T11:33:51;93703.03;;;17.15;42.73
3178;BME280;38141;42.666;23.344;2023-04-26T11:36:21;93642.91;;;16.40;43.34
3178;BME280;38141;42.666;23.344;2023-04-26T11:38:49;93677.88;;;16.67;44.37
3178;BME280;38141;42.666;23.344;2023-04-26T11:41:26;93697.50;;;16.53;44.47
3178;BME280;38141;42.666;23.344;2023-04-26T11:43:58;93732.56;;;16.98;44.82
3178;BME280;38141;42.666;23.344;2023-04-26T11:46:34;93780.19;;;17.50;43.54
3178;BME280;38141;42.666;23.344;2023-04-26T11:49:02;93778.69;;;16.96;43.60
3178;BME280;38141;42.666;23.344;2023-04-26T11:51:31;93767.56;;;17.43;43.78
3178;BME280;38141;42.666;23.344;2023-04-26T11:53:59;93754.88;;;17.27;44.05
3178;BME280;38141;42.666;23.344;2023-04-26T11:56:29;93689.81;;;17.13;43.09
3178;BME280;38141;42.666;23.344;2023-04-26T11:58:58;93772.53;;;17.97;43.08
3178;BME280;38141;42.666;23.344;2023-04-26T12:01:26;93734.59;;;17.77;42.14
3178;BME280;38141;42.666;23.344;2023-04-26T12:03:54;93756.41;;;18.08;41.56
3178;BME280;38141;42.666;23.344;2023-04-26T12:06:27;93749.91;;;18.15;41.24
3178;BME280;38141;42.666;23.344;2023-04-26T12:08:55;93762.22;;;17.61;42.88
3178;BME280;38141;42.666;23.344;2023-04-26T12:11:22;93740.19;;;17.65;42.75
3178;BME280;38141;42.666;23.344;2023-04-26T12:13:49;93735.78;;;17.37;42.40
3178;BME280;38141;42.666;23.344;2023-04-26T12:16:17;93735.69;;;17.18;43.09
3178;BME280;38141;42.666;23.344;2023-04-26T12:18:49;93748.38;;;17.34;44.02
3178;BME280;38141;42.666;23.344;2023-04-26T12:21:17;93723.03;;;16.81;44.49
3178;BME280;38141;42.666;23.344;2023-04-26T12:23:44;93746.44;;;17.13;45.49
3178;BME280;38141;42.666;23.344;2023-04-26T12:26:12;93757.03;;;16.80;44.71
3178;BME280;38141;42.666;23.344;2023-04-26T12:28:40;93751.44;;;16.83;44.73
3178;BME280;38141;42.666;23.344;2023-04-26T12:31:07;93743.78;;;17.00;44.03
3178;BME280;38141;42.666;23.344;2023-04-26T12:33:35;93748.38;;;16.81;45.04
3178;BME280;38141;42.666;23.344;2023-04-26T12:36:06;93742.59;;;17.01;44.45
3178;BME280;38141;42.666;23.344;2023-04-26T12:38:33;93737.69;;;16.96;44.07
3178;BME280;38141;42.666;23.344;2023-04-26T12:41:00;93748.00;;;16.70;45.44
3178;BME280;38141;42.666;23.344;2023-04-26T12:43:27;93725.72;;;16.37;45.33
3178;BME280;38141;42.666;23.344;2023-04-26T12:45:54;93673.31;;;16.08;45.50
3178;BME280;38141;42.666;23.344;2023-04-26T12:48:21;93738.91;;;16.73;43.94
3178;BME280;38141;42.666;23.344;2023-04-26T12:50:50;93712.56;;;16.45;45.59
3178;BME280;38141;42.666;23.344;2023-04-26T12:53:16;93746.75;;;16.50;45.67
3178;BME280;38141;42.666;23.344;2023-04-26T12:55:44;93745.91;;;16.06;46.62
3178;BME280;38141;42.666;23.344;2023-04-26T12:58:11;93750.38;;;16.12;46.75
3178;BME280;38141;42.666;23.344;2023-04-26T13:00:37;93636.16;;;15.42;45.90
3178;BME280;38141;42.666;23.344;2023-04-26T13:03:04;93698.91;;;15.76;45.68
3178;BME280;38141;42.666;23.344;2023-04-26T13:05:31;93658.28;;;15.31;45.75
3178;BME280;38141;42.666;23.344;2023-04-26T13:08:02;93753.59;;;15.60;45.78